Time;durP1;ratioP1;P1;durP2;ratioP2;P2;SDS_P1;SDS_P2;PMS_P1;PMS_P2;Temp;Humidity;BMP_temperature;BMP_pressure;BME280_temperature;BME280_humidity;BME280_pressure;Samples;Min_cycle;Max_cycle;Signal;HPM_P1;HPM_P2
2023/05/26 00:01:49;;;;;;;13.25;11.95;;;;;;;;;;5088099;22;20767;-64
2023/05/26 00:04:17;;;;;;;12.40;11.10;;;;;;;;;;5094349;28;20456;-61
2023/05/26 00:06:52;;;;;;;11.95;10.77;;;;;;;;;;5075931;28;20036;-61
2023/05/26 00:09:18;;;;;;;12.63;11.38;;;;;;;;;;5093601;28;20032;-62
2023/05/26 00:11:44;;;;;;;12.55;11.30;;;;;;;;;;5098167;28;20051;-61
2023/05/26 00:14:10;;;;;;;12.63;10.93;;;;;;;;;;5100656;28;20034;-62
2023/05/26 00:16:35;;;;;;;13.93;11.95;;;;;;;;;;5100530;28;20028;-61
2023/05/26 00:19:00;;;;;;;15.70;12.93;;;;;;;;;;5100348;28;20039;-62
2023/05/26 00:21:26;;;;;;;14.45;12.90;;;;;;;;;;5100436;28;20032;-62
2023/05/26 00:23:51;;;;;;;14.35;12.88;;;;;;;;;;5100223;28;20383;-62
2023/05/26 00:26:16;;;;;;;13.57;11.70;;;;;;;;;;5100918;28;20062;-63
2023/05/26 00:28:46;;;;;;;14.30;12.45;;;;;;;;;;5082209;28;20051;-62
2023/05/26 00:31:12;;;;;;;14.13;12.70;;;;;;;;;;5100437;28;20089;-62
2023/05/26 00:33:37;;;;;;;14.65;12.57;;;;;;;;;;5100292;28;20035;-62
2023/05/26 00:36:04;;;;;;;13.02;11.13;;;;;;;;;;5100097;28;20020;-62
2023/05/26 00:38:30;;;;;;;11.25;10.15;;;;;;;;;;5100014;28;20027;-62
2023/05/26 00:40:55;;;;;;;10.02;9.13;;;;;;;;;;5100229;28;20028;-62
2023/05/26 00:43:21;;;;;;;12.50;11.25;;;;;;;;;;5100050;28;20032;-62
2023/05/26 00:45:46;;;;;;;14.93;11.38;;;;;;;;;;5100217;28;20028;-62
2023/05/26 00:48:11;;;;;;;12.73;11.23;;;;;;;;;;5082241;28;20107;-62
2023/05/26 00:50:38;;;;;;;12.07;10.82;;;;;;;;;;5082260;28;20023;-62
2023/05/26 00:53:03;;;;;;;11.02;9.85;;;;;;;;;;5082594;28;20034;-63
2023/05/26 00:55:28;;;;;;;10.88;9.80;;;;;;;;;;5100386;28;20020;-63
2023/05/26 00:57:54;;;;;;;12.25;11.00;;;;;;;;;;5116302;28;20048;-63
2023/05/26 01:00:20;;;;;;;11.55;10.48;;;;;;;;;;5100435;28;20040;-62
2023/05/26 01:02:48;;;;;;;15.93;12.38;;;;;;;;;;5082145;28;20036;-63
2023/05/26 01:05:15;;;;;;;15.48;13.57;;;;;;;;;;5082263;28;20036;-62
2023/05/26 01:07:41;;;;;;;15.23;13.32;;;;;;;;;;5116021;28;20020;-62
2023/05/26 01:10:09;;;;;;;14.63;13.15;;;;;;;;;;5082218;28;20020;-62
2023/05/26 01:12:37;;;;;;;15.15;13.27;;;;;;;;;;5100127;28;20018;-62
2023/05/26 01:15:09;;;;;;;14.98;13.40;;;;;;;;;;5065557;28;20030;-62
2023/05/26 01:17:39;;;;;;;15.45;13.57;;;;;;;;;;5082082;28;20515;-61
2023/05/26 01:20:08;;;;;;;;;;;;;;;;;;5100946;28;20023;-62
2023/05/26 01:22:45;;;;;;;13.88;12.20;;;;;;;;;;5079769;28;19904;-63
2023/05/26 01:25:10;;;;;;;14.48;12.93;;;;;;;;;;5096925;28;20032;-63
2023/05/26 01:27:45;;;;;;;14.57;12.18;;;;;;;;;;5078553;28;20039;-63
2023/05/26 01:30:11;;;;;;;14.57;12.23;;;;;;;;;;5079000;28;20028;-62
2023/05/26 01:32:37;;;;;;;16.75;13.15;;;;;;;;;;5078744;28;20032;-63
2023/05/26 01:35:03;;;;;;;13.80;12.38;;;;;;;;;;5096680;28;20031;-63
2023/05/26 01:37:28;;;;;;;12.80;11.35;;;;;;;;;;5061584;28;20114;-62
2023/05/26 01:39:53;;;;;;;13.10;11.70;;;;;;;;;;5096688;28;20371;-62
2023/05/26 01:42:22;;;;;;;15.13;13.57;;;;;;;;;;5096755;28;20023;-62
2023/05/26 01:44:55;;;;;;;15.00;13.25;;;;;;;;;;5062079;28;20031;-62
2023/05/26 01:47:22;;;;;;;15.73;13.43;;;;;;;;;;5078463;28;20032;-62
2023/05/26 01:49:47;;;;;;;14.30;12.85;;;;;;;;;;5078455;28;20012;-62
2023/05/26 01:52:15;;;;;;;16.23;14.45;;;;;;;;;;5078524;28;20574;-62
2023/05/26 01:54:47;;;;;;;20.67;16.42;;;;;;;;;;5096464;28;20478;-62
2023/05/26 01:57:15;;;;;;;17.00;14.57;;;;;;;;;;5061268;28;20026;-62
2023/05/26 01:59:40;;;;;;;16.38;13.82;;;;;;;;;;5061025;28;20023;-62
2023/05/26 02:02:07;;;;;;;19.10;15.30;;;;;;;;;;5054093;28;20120;-66
2023/05/26 02:04:32;;;;;;;16.42;14.70;;;;;;;;;;5055677;28;20113;-67
2023/05/26 02:06:58;;;;;;;16.58;13.93;;;;;;;;;;5071000;28;20041;-64
2023/05/26 02:09:23;;;;;;;17.35;13.77;;;;;;;;;;5071272;28;20036;-62
2023/05/26 02:11:49;;;;;;;17.08;14.80;;;;;;;;;;5055324;28;20539;-62
2023/05/26 02:14:14;;;;;;;15.77;14.13;;;;;;;;;;5055719;28;20025;-61
2023/05/26 02:16:40;;;;;;;13.60;12.23;;;;;;;;;;5055699;28;20033;-62
2023/05/26 02:19:07;;;;;;;12.48;11.30;;;;;;;;;;5055613;28;20048;-61
2023/05/26 02:21:35;;;;;;;14.52;12.00;;;;;;;;;;5055260;28;20032;-62
2023/05/26 02:24:01;;;;;;;15.15;13.23;;;;;;;;;;5055605;28;20025;-62
2023/05/26 02:26:26;;;;;;;17.40;14.65;;;;;;;;;;5070632;28;20078;-62
2023/05/26 02:28:52;;;;;;;16.90;15.13;;;;;;;;;;5070397;28;20029;-62
2023/05/26 02:31:17;;;;;;;16.60;14.05;;;;;;;;;;5070483;28;20116;-63
2023/05/26 02:33:42;;;;;;;15.23;13.65;;;;;;;;;;5070688;28;20057;-62
2023/05/26 02:36:09;;;;;;;19.42;15.57;;;;;;;;;;5070679;28;20170;-62
2023/05/26 02:38:34;;;;;;;18.00;14.70;;;;;;;;;;5070384;28;20037;-62
2023/05/26 02:40:59;;;;;;;14.20;12.60;;;;;;;;;;5070965;28;20047;-62
2023/05/26 02:46:03;;;;;;;13.68;12.25;;;;;;;;;;5091294;22;20194;-64
2023/05/26 02:48:29;;;;;;;14.00;12.43;;;;;;;;;;5124798;22;20139;-64
2023/05/26 02:51:36;;;;;;;14.55;13.00;;;;;;;;;;5098297;23;20193;-62
2023/05/26 02:54:01;;;;;;;17.38;13.88;;;;;;;;;;5095337;28;20024;-62
2023/05/26 02:56:34;;;;;;;17.55;13.60;;;;;;;;;;5094926;28;20028;-62
2023/05/26 02:58:59;;;;;;;15.05;13.50;;;;;;;;;;5110976;28;20064;-64
2023/05/26 03:01:27;;;;;;;19.38;16.35;;;;;;;;;;5094921;28;20047;-63
2023/05/26 03:03:52;;;;;;;19.10;17.00;;;;;;;;;;5076591;28;20012;-63
2023/05/26 03:06:18;;;;;;;23.70;19.52;;;;;;;;;;5110859;28;20024;-62
2023/05/26 03:08:43;;;;;;;26.73;19.67;;;;;;;;;;5094697;28;20046;-65
2023/05/26 03:11:11;;;;;;;22.95;18.05;;;;;;;;;;5076639;28;20028;-66
2023/05/26 03:13:38;;;;;;;26.27;20.40;;;;;;;;;;5060466;28;20455;-66
2023/05/26 03:16:04;;;;;;;31.73;23.65;;;;;;;;;;5076387;28;20034;-66
2023/05/26 03:18:32;;;;;;;31.38;21.48;;;;;;;;;;5076584;28;20042;-66
2023/05/26 03:20:58;;;;;;;29.10;22.60;;;;;;;;;;5059400;28;20446;-67
2023/05/26 03:23:24;;;;;;;26.27;18.52;;;;;;;;;;5076623;28;20085;-67
2023/05/26 03:25:50;;;;;;;24.85;19.23;;;;;;;;;;5076198;28;20499;-67
2023/05/26 03:28:15;;;;;;;22.27;17.08;;;;;;;;;;5076306;28;20064;-67
2023/05/26 03:30:41;;;;;;;25.23;18.23;;;;;;;;;;5075980;28;20022;-67
2023/05/26 03:33:07;;;;;;;24.83;18.45;;;;;;;;;;5075904;28;20495;-67
2023/05/26 03:35:33;;;;;;;22.00;16.30;;;;;;;;;;5076304;28;20020;-68
2023/05/26 03:37:58;;;;;;;18.50;15.77;;;;;;;;;;5094444;28;20039;-67
2023/05/26 03:40:24;;;;;;;21.92;15.95;;;;;;;;;;5110041;28;20594;-65
2023/05/26 03:42:52;;;;;;;19.35;16.80;;;;;;;;;;5110191;28;20058;-65
2023/05/26 03:45:17;;;;;;;19.77;16.33;;;;;;;;;;5108913;28;20491;-67
2023/05/26 03:47:44;;;;;;;21.90;17.30;;;;;;;;;;5075824;28;20032;-64
2023/05/26 03:50:11;;;;;;;19.48;15.15;;;;;;;;;;5109493;28;20032;-64
2023/05/26 03:52:37;;;;;;;20.23;16.65;;;;;;;;;;5077544;28;20035;-65
2023/05/26 03:55:03;;;;;;;23.85;17.05;;;;;;;;;;5113579;28;20416;-65
2023/05/26 03:57:28;;;;;;;28.40;18.38;;;;;;;;;;5095428;28;20038;-65
2023/05/26 03:59:54;;;;;;;33.03;21.08;;;;;;;;;;5094771;28;20031;-63
2023/05/26 04:02:19;;;;;;;33.10;21.27;;;;;;;;;;5094914;28;20032;-65
2023/05/26 04:04:47;;;;;;;32.50;21.13;;;;;;;;;;5094916;28;20097;-64
2023/05/26 04:07:12;;;;;;;32.72;20.55;;;;;;;;;;5113500;28;20035;-66
2023/05/26 04:09:37;;;;;;;28.98;20.80;;;;;;;;;;5095106;28;20055;-66
2023/05/26 04:12:02;;;;;;;28.42;19.52;;;;;;;;;;5094949;28;20088;-66
2023/05/26 04:14:28;;;;;;;29.70;19.98;;;;;;;;;;5094865;28;20062;-66
2023/05/26 04:16:53;;;;;;;36.78;21.50;;;;;;;;;;5095027;28;20040;-61
2023/05/26 04:19:19;;;;;;;43.05;24.38;;;;;;;;;;5113106;28;20031;-62
2023/05/26 04:21:46;;;;;;;38.90;22.75;;;;;;;;;;5095130;28;20028;-62
2023/05/26 04:24:12;;;;;;;33.67;22.58;;;;;;;;;;5094241;28;20058;-62
2023/05/26 04:26:38;;;;;;;39.65;24.38;;;;;;;;;;5078247;28;20042;-62
2023/05/26 04:29:11;;;;;;;33.95;22.70;;;;;;;;;;5094645;28;20028;-62
2023/05/26 04:31:42;;;;;;;;;;;;;;;;;;5095500;28;20102;-62
2023/05/26 04:34:38;;;;;;;25.80;17.98;;;;;;;;;;5095149;28;19912;-62
2023/05/26 04:37:14;;;;;;;24.35;17.85;;;;;;;;;;5096785;28;20110;-62
2023/05/26 04:39:40;;;;;;;23.38;17.50;;;;;;;;;;5113147;28;20106;-62
2023/05/26 04:42:06;;;;;;;26.15;19.40;;;;;;;;;;5094691;28;20027;-61
2023/05/26 04:44:32;;;;;;;26.02;18.65;;;;;;;;;;5094059;28;20127;-62
2023/05/26 04:47:00;;;;;;;25.25;17.92;;;;;;;;;;5094434;28;20024;-62
2023/05/26 04:49:27;;;;;;;25.90;20.10;;;;;;;;;;5073408;28;1107302;-62
2023/05/26 04:51:55;;;;;;;25.60;20.10;;;;;;;;;;5113590;28;20414;-62
2023/05/26 04:54:21;;;;;;;24.83;18.10;;;;;;;;;;5078302;28;20024;-61
2023/05/26 04:56:46;;;;;;;26.10;19.90;;;;;;;;;;5113635;28;20051;-62
2023/05/26 04:59:12;;;;;;;25.13;19.20;;;;;;;;;;5116206;28;20059;-61
2023/05/26 05:01:38;;;;;;;24.63;18.27;;;;;;;;;;5099195;28;20111;-62
2023/05/26 05:04:36;;;;;;;23.95;18.27;;;;;;;;;;5094064;28;20043;-62
2023/05/26 05:07:02;;;;;;;22.83;17.67;;;;;;;;;;5085100;28;20104;-62
2023/05/26 05:09:27;;;;;;;25.90;18.90;;;;;;;;;;5084083;28;20028;-62
2023/05/26 05:11:53;;;;;;;24.08;18.25;;;;;;;;;;5095638;28;20028;-62
2023/05/26 05:14:19;;;;;;;24.13;18.55;;;;;;;;;;5077208;28;20039;-62
2023/05/26 05:16:46;;;;;;;29.67;19.58;;;;;;;;;;5076557;28;20027;-63
2023/05/26 05:19:12;;;;;;;26.27;19.13;;;;;;;;;;5076035;28;20416;-62
2023/05/26 05:21:46;;;;;;;24.02;18.45;;;;;;;;;;5077244;28;20490;-62
2023/05/26 05:24:13;;;;;;;24.98;18.10;;;;;;;;;;5077579;28;20024;-62
2023/05/26 05:26:39;;;;;;;25.42;18.52;;;;;;;;;;5077934;28;20031;-67
2023/05/26 05:29:04;;;;;;;26.65;17.60;;;;;;;;;;5078019;28;20028;-63
2023/05/26 05:31:33;;;;;;;24.33;18.48;;;;;;;;;;5077828;28;20020;-64
2023/05/26 05:33:58;;;;;;;31.73;22.92;;;;;;;;;;5077736;28;20031;-64
2023/05/26 05:36:23;;;;;;;34.05;23.23;;;;;;;;;;5077862;28;20027;-62
2023/05/26 05:38:52;;;;;;;32.40;23.85;;;;;;;;;;5078108;28;20024;-62
2023/05/26 05:41:19;;;;;;;31.48;21.58;;;;;;;;;;5061704;28;20557;-63
2023/05/26 05:43:45;;;;;;;28.45;21.65;;;;;;;;;;5096753;28;20035;-63
2023/05/26 05:46:11;;;;;;;27.27;19.83;;;;;;;;;;5112009;28;20031;-63
2023/05/26 05:48:48;;;;;;;31.92;22.58;;;;;;;;;;5077358;28;20099;-63
2023/05/26 05:51:18;;;;;;;29.38;22.38;;;;;;;;;;5073733;28;20387;-63
2023/05/26 05:53:44;;;;;;;28.13;21.65;;;;;;;;;;5094805;28;20032;-63
2023/05/26 05:56:10;;;;;;;31.88;22.25;;;;;;;;;;5061707;28;20051;-63
2023/05/26 05:58:35;;;;;;;27.95;22.42;;;;;;;;;;5096110;28;20062;-70
2023/05/26 06:01:00;;;;;;;29.90;22.40;;;;;;;;;;5096161;28;20083;-71
2023/05/26 06:03:26;;;;;;;29.33;21.77;;;;;;;;;;5077444;28;20511;-71
2023/05/26 06:05:51;;;;;;;27.27;21.33;;;;;;;;;;5095447;28;20028;-71
2023/05/26 06:08:17;;;;;;;32.28;21.33;;;;;;;;;;5076986;28;20024;-71
2023/05/26 06:10:43;;;;;;;29.48;20.77;;;;;;;;;;5077084;28;20471;-71
2023/05/26 06:13:08;;;;;;;26.80;20.55;;;;;;;;;;5077175;28;20016;-71
2023/05/26 06:15:34;;;;;;;28.50;20.88;;;;;;;;;;5077191;28;20423;-71
2023/05/26 06:17:59;;;;;;;29.48;21.80;;;;;;;;;;5077119;28;20028;-71
2023/05/26 06:20:25;;;;;;;28.20;21.63;;;;;;;;;;5077092;28;20032;-71
2023/05/26 06:22:50;;;;;;;28.90;21.25;;;;;;;;;;5076951;28;20070;-71
2023/05/26 06:25:16;;;;;;;28.10;20.88;;;;;;;;;;5060351;28;20016;-71
2023/05/26 06:27:41;;;;;;;28.30;20.70;;;;;;;;;;5095002;28;20467;-71
2023/05/26 06:30:07;;;;;;;25.60;19.13;;;;;;;;;;5076918;28;20033;-71
2023/05/26 06:32:35;;;;;;;22.48;17.73;;;;;;;;;;5077169;28;20070;-71
2023/05/26 06:35:00;;;;;;;24.42;18.83;;;;;;;;;;5076795;28;20047;-71
2023/05/26 06:37:28;;;;;;;26.73;19.08;;;;;;;;;;5076910;28;20032;-71
2023/05/26 06:39:53;;;;;;;21.38;16.35;;;;;;;;;;5094810;28;20059;-71
2023/05/26 06:42:24;;;;;;;26.40;19.42;;;;;;;;;;5076655;28;20054;-71
2023/05/26 06:44:49;;;;;;;25.40;18.67;;;;;;;;;;5076886;28;20063;-71
2023/05/26 06:47:15;;;;;;;22.73;17.65;;;;;;;;;;5076552;28;20070;-71
2023/05/26 06:49:43;;;;;;;29.65;19.73;;;;;;;;;;5076354;28;20040;-71
2023/05/26 06:52:11;;;;;;;26.75;19.33;;;;;;;;;;5076362;28;20024;-71
2023/05/26 06:54:37;;;;;;;18.00;15.40;;;;;;;;;;5076320;28;20023;-71
2023/05/26 06:57:02;;;;;;;19.13;14.48;;;;;;;;;;5094594;28;20040;-71
2023/05/26 06:59:29;;;;;;;21.75;17.02;;;;;;;;;;5076375;28;20020;-71
2023/05/26 07:01:55;;;;;;;22.48;17.50;;;;;;;;;;5076160;28;20035;-71
2023/05/26 07:04:21;;;;;;;19.30;14.98;;;;;;;;;;5076272;28;20016;-71
2023/05/26 07:06:46;;;;;;;15.75;12.43;;;;;;;;;;5059446;28;20507;-71
2023/05/26 07:09:12;;;;;;;18.23;13.82;;;;;;;;;;5092881;28;20387;-71
2023/05/26 07:11:48;;;;;;;16.38;13.65;;;;;;;;;;5060943;28;20028;-71
2023/05/26 07:14:33;;;;;;;17.40;13.90;;;;;;;;;;5093955;28;20036;-64
2023/05/26 07:17:38;;;;;;;17.15;12.40;;;;;;;;;;5067945;23;20052;-64
2023/05/26 07:20:05;;;;;;;16.73;12.60;;;;;;;;;;5057969;22;20421;-70
2023/05/26 07:22:31;;;;;;;19.17;14.35;;;;;;;;;;5068776;28;20033;-70
2023/05/26 07:25:03;;;;;;;20.23;14.55;;;;;;;;;;5069177;28;20060;-70
2023/05/26 07:27:35;;;;;;;18.73;13.73;;;;;;;;;;5069066;28;20599;-70
2023/05/26 07:30:02;;;;;;;16.65;12.85;;;;;;;;;;5069085;28;20037;-70
2023/05/26 07:32:28;;;;;;;12.27;11.00;;;;;;;;;;5036148;28;20012;-71
2023/05/26 07:34:54;;;;;;;15.30;11.20;;;;;;;;;;5035743;28;20107;-70
2023/05/26 07:37:19;;;;;;;12.98;9.93;;;;;;;;;;5035739;28;20080;-70
2023/05/26 07:39:46;;;;;;;12.40;10.43;;;;;;;;;;5053532;28;20040;-70
2023/05/26 07:42:12;;;;;;;10.93;9.38;;;;;;;;;;5053440;28;20503;-71
2023/05/26 07:44:37;;;;;;;11.93;9.98;;;;;;;;;;5053428;28;20029;-70
2023/05/26 07:47:02;;;;;;;9.10;8.13;;;;;;;;;;5035618;28;20040;-71
2023/05/26 07:49:29;;;;;;;12.80;9.18;;;;;;;;;;5053387;28;20067;-70
2023/05/26 07:51:54;;;;;;;12.05;8.05;;;;;;;;;;5053295;28;20032;-64
2023/05/26 07:54:19;;;;;;;10.80;7.93;;;;;;;;;;5035576;28;20392;-64
2023/05/26 07:56:45;;;;;;;10.68;7.32;;;;;;;;;;5053242;28;20096;-70
2023/05/26 07:59:10;;;;;;;12.13;7.32;;;;;;;;;;5053233;28;20036;-70
2023/05/26 08:01:36;;;;;;;7.78;6.95;;;;;;;;;;5053242;28;20025;-70
2023/05/26 08:04:01;;;;;;;11.10;7.40;;;;;;;;;;5053191;28;20032;-70
2023/05/26 08:06:26;;;;;;;11.52;7.85;;;;;;;;;;5035412;28;20036;-72
2023/05/26 08:08:52;;;;;;;10.82;7.60;;;;;;;;;;5053047;28;20103;-70
2023/05/26 08:11:17;;;;;;;11.25;7.53;;;;;;;;;;5053055;28;20020;-72
2023/05/26 08:13:43;;;;;;;11.18;8.07;;;;;;;;;;5051856;28;20025;-70
2023/05/26 08:16:08;;;;;;;10.95;7.65;;;;;;;;;;5053096;28;20027;-72
2023/05/26 08:18:33;;;;;;;9.23;7.43;;;;;;;;;;5053227;28;20500;-72
2023/05/26 08:20:59;;;;;;;9.73;7.65;;;;;;;;;;5068372;28;20044;-70
2023/05/26 08:23:24;;;;;;;9.15;7.50;;;;;;;;;;5053051;28;20040;-70
2023/05/26 08:25:49;;;;;;;9.75;7.47;;;;;;;;;;5035185;28;20037;-70
2023/05/26 08:28:15;;;;;;;8.82;6.78;;;;;;;;;;5052951;28;20049;-70
2023/05/26 08:30:41;;;;;;;11.18;7.07;;;;;;;;;;5068499;28;20108;-71
2023/05/26 08:33:06;;;;;;;10.82;7.97;;;;;;;;;;5055623;28;20465;-72
2023/05/26 08:35:32;;;;;;;7.47;6.75;;;;;;;;;;5056864;28;20017;-72
2023/05/26 08:37:57;;;;;;;8.25;7.45;;;;;;;;;;5072372;28;20059;-72
2023/05/26 08:40:22;;;;;;;8.10;7.30;;;;;;;;;;5038949;28;20017;-72
2023/05/26 08:42:51;;;;;;;9.90;6.85;;;;;;;;;;5056770;28;20039;-70
2023/05/26 08:45:17;;;;;;;9.07;6.45;;;;;;;;;;5038852;28;20029;-70
2023/05/26 08:47:43;;;;;;;9.77;6.50;;;;;;;;;;5038746;28;20056;-72
2023/05/26 08:50:08;;;;;;;11.88;7.00;;;;;;;;;;5056558;28;20048;-72
2023/05/26 08:52:35;;;;;;;7.88;6.22;;;;;;;;;;5038716;28;20033;-71
2023/05/26 08:55:01;;;;;;;6.53;5.80;;;;;;;;;;5055298;28;20446;-71
2023/05/26 08:57:28;;;;;;;5.68;5.07;;;;;;;;;;5056546;28;20049;-71
2023/05/26 08:59:55;;;;;;;6.60;4.90;;;;;;;;;;5055254;28;20098;-71
2023/05/26 09:02:20;;;;;;;7.40;5.13;;;;;;;;;;5056635;28;20465;-72
2023/05/26 09:04:46;;;;;;;6.07;5.45;;;;;;;;;;5056409;28;20087;-71
2023/05/26 09:07:13;;;;;;;7.10;6.40;;;;;;;;;;5038470;28;20078;-72
2023/05/26 09:09:38;;;;;;;9.02;6.90;;;;;;;;;;5038526;28;20029;-72
2023/05/26 09:12:10;;;;;;;7.68;6.47;;;;;;;;;;5056291;28;20021;-72
2023/05/26 09:14:37;;;;;;;7.07;5.63;;;;;;;;;;5071736;28;20453;-72
2023/05/26 09:17:03;;;;;;;5.82;5.32;;;;;;;;;;5056223;28;20120;-71
2023/05/26 09:19:28;;;;;;;9.10;6.80;;;;;;;;;;5056079;28;20079;-72
2023/05/26 09:21:54;;;;;;;6.55;5.35;;;;;;;;;;5056004;28;20115;-72
2023/05/26 09:24:20;;;;;;;6.13;5.00;;;;;;;;;;5056103;28;20552;-72
2023/05/26 09:26:46;;;;;;;9.40;5.57;;;;;;;;;;5038009;28;20048;-71
2023/05/26 09:29:11;;;;;;;5.22;4.72;;;;;;;;;;5038213;28;20388;-72
2023/05/26 09:31:43;;;;;;;5.13;4.40;;;;;;;;;;5038073;28;20025;-72
2023/05/26 09:34:09;;;;;;;5.75;4.90;;;;;;;;;;5071367;28;20603;-71
2023/05/26 09:36:36;;;;;;;6.63;4.63;;;;;;;;;;5021500;28;20047;-72
2023/05/26 09:39:03;;;;;;;5.03;4.20;;;;;;;;;;5056061;28;20028;-71
2023/05/26 09:41:37;;;;;;;5.10;3.80;;;;;;;;;;5055815;28;20040;-71
2023/05/26 09:44:10;;;;;;;5.95;4.50;;;;;;;;;;5054769;28;20052;-72
2023/05/26 09:46:36;;;;;;;6.68;5.22;;;;;;;;;;5055594;28;20037;-72
2023/05/26 09:49:06;;;;;;;5.78;5.20;;;;;;;;;;5037851;28;20087;-72
2023/05/26 09:51:31;;;;;;;6.85;4.50;;;;;;;;;;5055538;28;20029;-72
2023/05/26 09:53:57;;;;;;;6.05;4.88;;;;;;;;;;5055508;28;20095;-73
2023/05/26 09:56:24;;;;;;;5.57;4.72;;;;;;;;;;5055467;28;20031;-71
2023/05/26 09:58:51;;;;;;;5.25;4.82;;;;;;;;;;5070995;28;20067;-71
2023/05/26 10:01:17;;;;;;;4.82;4.35;;;;;;;;;;5055389;28;20488;-65
2023/05/26 10:03:43;;;;;;;5.57;4.40;;;;;;;;;;5055363;28;20029;-65
2023/05/26 10:06:16;;;;;;;7.72;4.38;;;;;;;;;;5071055;28;20035;-65
2023/05/26 10:08:44;;;;;;;4.90;4.40;;;;;;;;;;5055131;28;20037;-65
2023/05/26 10:11:09;;;;;;;5.78;4.40;;;;;;;;;;5055309;28;20029;-65
2023/05/26 10:13:35;;;;;;;4.63;4.28;;;;;;;;;;5037351;28;20086;-65
2023/05/26 10:18:45;;;;;;;5.90;5.40;;;;;;;;;;5100321;23;20495;-72
2023/05/26 10:21:11;;;;;;;5.95;4.95;;;;;;;;;;5095252;28;20028;-72
2023/05/26 10:23:42;;;;;;;6.18;5.32;;;;;;;;;;5095193;28;20105;-72
2023/05/26 10:26:10;;;;;;;4.90;4.30;;;;;;;;;;5095162;28;20107;-71
2023/05/26 10:29:07;;;;;;;5.43;4.93;;;;;;;;;;5095017;28;20357;-72
2023/05/26 10:31:34;;;;;;;7.43;5.40;;;;;;;;;;5053364;28;20045;-71
2023/05/26 10:34:00;;;;;;;5.72;5.28;;;;;;;;;;5058205;28;20366;-72
2023/05/26 10:36:26;;;;;;;5.80;5.00;;;;;;;;;;5094964;28;20089;-71
2023/05/26 10:38:52;;;;;;;5.97;5.40;;;;;;;;;;5094877;28;20231;-72
2023/05/26 10:41:36;;;;;;;7.03;5.25;;;;;;;;;;5076765;28;20040;-71
2023/05/26 10:44:02;;;;;;;5.72;5.07;;;;;;;;;;5094800;28;20035;-72
2023/05/26 10:46:45;;;;;;;5.80;5.30;;;;;;;;;;5094777;28;20498;-71
2023/05/26 10:49:25;;;;;;;5.80;5.20;;;;;;;;;;5094712;28;20039;-71
2023/05/26 10:51:53;;;;;;;7.18;5.47;;;;;;;;;;5094708;28;20039;-71
2023/05/26 10:54:25;;;;;;;7.27;5.07;;;;;;;;;;5094625;28;20459;-72
2023/05/26 10:56:52;;;;;;;5.78;5.28;;;;;;;;;;5094529;28;20379;-71
2023/05/26 10:59:22;;;;;;;6.50;5.55;;;;;;;;;;5094861;28;20031;-69
2023/05/26 11:01:54;;;;;;;6.43;5.93;;;;;;;;;;5109946;28;20032;-69
2023/05/26 11:04:21;;;;;;;7.22;6.05;;;;;;;;;;5094504;28;20028;-71
2023/05/26 11:06:59;;;;;;;6.78;6.18;;;;;;;;;;5094310;28;20034;-72
2023/05/26 11:09:28;;;;;;;5.95;5.45;;;;;;;;;;5094358;28;20036;-70
2023/05/26 11:11:53;;;;;;;6.57;5.95;;;;;;;;;;5094193;28;20107;-72
2023/05/26 11:14:23;;;;;;;6.78;5.63;;;;;;;;;;5094360;28;20048;-72
2023/05/26 11:17:07;;;;;;;6.30;5.23;;;;;;;;;;5094344;28;20071;-71
2023/05/26 11:19:33;;;;;;;6.50;5.82;;;;;;;;;;5094063;28;20060;-72
2023/05/26 11:21:59;;;;;;;5.40;5.03;;;;;;;;;;5094096;28;20067;-72
2023/05/26 11:24:24;;;;;;;7.35;5.90;;;;;;;;;;5094112;28;20119;-72
2023/05/26 11:26:49;;;;;;;6.20;5.60;;;;;;;;;;5093947;28;20066;-71
2023/05/26 11:29:15;;;;;;;6.03;5.10;;;;;;;;;;5094109;28;20073;-72
2023/05/26 11:31:44;;;;;;;4.63;4.03;;;;;;;;;;5093938;28;20042;-71
2023/05/26 11:34:09;;;;;;;5.97;4.33;;;;;;;;;;5093957;28;20067;-71
2023/05/26 11:36:35;;;;;;;5.40;3.97;;;;;;;;;;5075752;28;20487;-71
2023/05/26 11:39:01;;;;;;;6.57;4.25;;;;;;;;;;5094083;28;20035;-72
2023/05/26 11:41:27;;;;;;;5.43;4.63;;;;;;;;;;5093762;28;20383;-72
2023/05/26 11:43:56;;;;;;;4.65;4.18;;;;;;;;;;5109429;28;20032;-71
2023/05/26 11:46:22;;;;;;;8.20;4.40;;;;;;;;;;5093730;28;20090;-72
2023/05/26 11:48:47;;;;;;;6.13;4.20;;;;;;;;;;5093614;28;20477;-71
2023/05/26 11:51:44;;;;;;;4.30;3.90;;;;;;;;;;5125005;22;20060;-71
2023/05/26 11:54:10;;;;;;;7.43;4.00;;;;;;;;;;5121934;22;20153;-65
2023/05/26 11:56:36;;;;;;;6.03;3.97;;;;;;;;;;5105606;22;20162;-71
2023/05/26 11:59:03;;;;;;;3.72;3.22;;;;;;;;;;5075727;28;20036;-71
2023/05/26 12:01:29;;;;;;;4.47;3.90;;;;;;;;;;5093814;28;20090;-71
2023/05/26 12:03:56;;;;;;;3.80;3.50;;;;;;;;;;5075758;28;20102;-72
2023/05/26 12:06:25;;;;;;;4.18;3.50;;;;;;;;;;5075048;28;20020;-71
2023/05/26 12:08:55;;;;;;;7.28;4.40;;;;;;;;;;5075119;28;20036;-72
2023/05/26 12:11:22;;;;;;;5.78;4.53;;;;;;;;;;5093420;28;20035;-72
2023/05/26 12:14:10;;;;;;;4.43;4.03;;;;;;;;;;5093355;28;20012;-71
2023/05/26 12:16:36;;;;;;;9.85;4.20;;;;;;;;;;5093235;28;20063;-71
2023/05/26 12:19:02;;;;;;;5.50;3.63;;;;;;;;;;5075350;28;20032;-71
2023/05/26 12:21:28;;;;;;;4.20;3.08;;;;;;;;;;5093269;28;20035;-71
2023/05/26 12:23:54;;;;;;;5.10;4.07;;;;;;;;;;5093239;28;20020;-71
2023/05/26 12:26:22;;;;;;;5.07;4.43;;;;;;;;;;5093259;28;20555;-71
2023/05/26 12:29:04;;;;;;;6.88;4.25;;;;;;;;;;5093157;28;20051;-71
2023/05/26 12:31:43;;;;;;;4.40;4.00;;;;;;;;;;5093221;28;20030;-71
2023/05/26 12:34:12;;;;;;;6.15;3.47;;;;;;;;;;5093212;28;20020;-71
2023/05/26 12:36:37;;;;;;;4.82;4.03;;;;;;;;;;5093454;28;20019;-71
2023/05/26 12:39:03;;;;;;;5.82;3.83;;;;;;;;;;5093142;28;20476;-65
2023/05/26 12:41:29;;;;;;;4.22;3.83;;;;;;;;;;5075007;28;20032;-71
2023/05/26 12:43:54;;;;;;;4.63;3.63;;;;;;;;;;5075076;28;20039;-71
2023/05/26 12:46:20;;;;;;;4.70;3.63;;;;;;;;;;5093343;28;20532;-71
2023/05/26 12:48:45;;;;;;;3.90;3.58;;;;;;;;;;5075281;28;20106;-71
2023/05/26 12:51:13;;;;;;;5.32;3.67;;;;;;;;;;5093307;28;20016;-71
2023/05/26 12:53:39;;;;;;;5.70;3.67;;;;;;;;;;5093299;28;20093;-71
2023/05/26 12:56:04;;;;;;;5.30;4.28;;;;;;;;;;5093429;28;20040;-71
2023/05/26 12:58:29;;;;;;;4.18;3.28;;;;;;;;;;5093256;28;20059;-71
2023/05/26 13:00:55;;;;;;;4.00;3.60;;;;;;;;;;5075116;28;20029;-71
2023/05/26 13:03:20;;;;;;;5.60;3.60;;;;;;;;;;5093210;28;20388;-71
2023/05/26 13:05:51;;;;;;;5.38;3.70;;;;;;;;;;5093443;28;20052;-71
2023/05/26 13:08:17;;;;;;;12.50;4.30;;;;;;;;;;5092709;28;20040;-71
2023/05/26 13:10:44;;;;;;;4.90;3.75;;;;;;;;;;5093709;28;20026;-71
2023/05/26 13:13:11;;;;;;;6.25;3.88;;;;;;;;;;5074692;28;20082;-71
2023/05/26 13:15:36;;;;;;;4.05;3.47;;;;;;;;;;5074742;28;20360;-69
2023/05/26 13:18:02;;;;;;;5.13;3.63;;;;;;;;;;5092235;28;20035;-69
2023/05/26 13:20:27;;;;;;;6.85;4.07;;;;;;;;;;5096085;28;20405;-69
2023/05/26 13:22:53;;;;;;;9.00;3.75;;;;;;;;;;5096303;28;20024;-69
2023/05/26 13:25:18;;;;;;;5.60;4.05;;;;;;;;;;5095709;28;20036;-69
2023/05/26 13:27:43;;;;;;;4.25;3.85;;;;;;;;;;5096362;28;20035;-69
2023/05/26 13:30:09;;;;;;;4.43;3.65;;;;;;;;;;5077947;28;20058;-69
2023/05/26 13:32:36;;;;;;;7.65;3.95;;;;;;;;;;5096082;28;20028;-69
2023/05/26 13:35:02;;;;;;;5.85;3.72;;;;;;;;;;5077671;28;20024;-69
2023/05/26 13:37:27;;;;;;;3.63;3.25;;;;;;;;;;5095503;28;20032;-69
2023/05/26 13:39:53;;;;;;;3.55;3.25;;;;;;;;;;5078271;28;20035;-68
2023/05/26 13:42:18;;;;;;;6.78;3.60;;;;;;;;;;5098261;28;20037;-67
2023/05/26 13:44:44;;;;;;;6.57;3.90;;;;;;;;;;5082804;28;20498;-67
2023/05/26 13:47:14;;;;;;;5.25;3.20;;;;;;;;;;5095164;28;20356;-67
2023/05/26 13:49:40;;;;;;;6.43;3.80;;;;;;;;;;5090266;28;20024;-64
2023/05/26 13:52:06;;;;;;;5.72;3.45;;;;;;;;;;5079692;28;20074;-68
2023/05/26 13:54:31;;;;;;;5.30;3.83;;;;;;;;;;5093903;28;20056;-68
2023/05/26 13:56:57;;;;;;;8.07;3.80;;;;;;;;;;5093357;28;20068;-70
2023/05/26 13:59:22;;;;;;;7.32;4.22;;;;;;;;;;5093555;28;20024;-62
2023/05/26 14:01:48;;;;;;;4.97;3.60;;;;;;;;;;5092842;28;20082;-64
2023/05/26 14:04:15;;;;;;;5.93;4.03;;;;;;;;;;5093001;28;20756;-64
2023/05/26 14:06:40;;;;;;;4.68;3.60;;;;;;;;;;5093007;28;20052;-62
2023/05/26 14:09:07;;;;;;;6.05;3.80;;;;;;;;;;5097805;28;20067;-63
2023/05/26 14:11:32;;;;;;;6.72;3.30;;;;;;;;;;5112306;28;20032;-62
2023/05/26 14:13:58;;;;;;;6.70;3.50;;;;;;;;;;5113064;28;20539;-69
2023/05/26 14:16:24;;;;;;;4.07;3.67;;;;;;;;;;5089754;28;20016;-65
2023/05/26 14:18:50;;;;;;;9.70;3.58;;;;;;;;;;5093008;28;20080;-72
2023/05/26 14:21:16;;;;;;;4.32;3.58;;;;;;;;;;5074339;28;20032;-69
2023/05/26 14:23:42;;;;;;;6.20;3.58;;;;;;;;;;5074674;28;20059;-68
2023/05/26 14:26:08;;;;;;;6.82;3.80;;;;;;;;;;5074631;28;20036;-66
2023/05/26 14:28:35;;;;;;;6.13;3.67;;;;;;;;;;5092531;28;20028;-65
2023/05/26 14:31:00;;;;;;;4.85;3.15;;;;;;;;;;5092752;28;20028;-68
2023/05/26 14:33:26;;;;;;;5.30;3.50;;;;;;;;;;5092176;28;20016;-67
2023/05/26 14:35:54;;;;;;;3.45;3.15;;;;;;;;;;5092429;28;20510;-68